の過去48時間の天気

Lulea / Kallax

現在時刻: 9/16 05:05 CEST (9/16 03:05 UTC) 以下の時間は現地時間です。

過去48時間のMETAR気象情報
時間 風向 風速(m/s) 視程 気温(℃) 湿度(%) 気圧(hPa) 天気現象
16 04:20 3 10km以上 3 93 994
16 03:50 4 10km以上 4 87 994
16 03:20 4 10km以上 4 87 993
16 02:50 北北東 4 10km以上 5 87 993
16 02:20 北北東 3 10km以上 6 81 993
16 01:50 北北東 3 10km以上 6 81 993
16 01:20 北北東 3 10km以上 6 87 992
16 00:50 北北東 4 10km以上 7 81 992
16 00:20 北北東 3 10km以上 7 81 992
15 23:50 北東 4 10km以上 7 81 991
15 23:20 北東 3 10km以上 8 76 991
15 22:50 北東 4 10km以上 8 81 991
15 22:20 北東 4 10km以上 8 81 991
15 21:50 東北東 4 10km以上 8 81 991
15 21:20 東北東 4 10km以上 8 87 990
15 20:50 東北東 4 10km以上 9 81 990
15 20:20 2 10km以上 8 93 990 弱い雨
15 19:50 北東 3 10km以上 8 87 990 弱いしゅう雨
15 19:20 東北東 4 10km以上 9 81 990 弱いしゅう雨
15 18:50 東北東 3 10km以上 8 87 990 弱いしゅう雨
15 18:20 東北東 3 10km以上 8 93 990 しゅう雨
15 17:50 東北東 4 10km以上 8 87 990 弱いしゅう雨
15 17:20 東北東 4 10km以上 8 93 990 弱いしゅう雨
15 16:50 4 10km以上 8 87 990 しゅう雨
15 16:20 東南東 4 10km以上 9 81 990 弱いしゅう雨
15 15:50 5 10km以上 10 76 990
15 15:20 4 10km以上 10 76 990
15 14:50 3 10km以上 9 81 990 弱いしゅう雨
15 14:20 東南東 6 10km以上 9 76 991 弱いしゅう雨
15 13:50 東南東 5 10km以上 9 81 991 弱いしゅう雨
15 13:20 東南東 5 10km以上 9 87 991 弱いしゅう雨
15 12:50 東南東 5 10km以上 9 81 991 弱いしゅう雨
15 12:20 南東 7 10km以上 8 87 991 しゅう雨
15 11:50 南東 7 10km以上 10 71 992 弱いしゅう雨
15 11:20 南東 7 10km以上 10 82 992
15 10:50 南南東 5 10km以上 8 87 992 弱い雨
15 10:20 6 10km以上 8 87 993 弱い雨
15 09:50 南東 5 10km以上 8 87 993
15 09:20 5 10km以上 7 87 994 弱い雨
15 08:50 南東 7 8000m 8 81 994 強い雨
15 08:20 3 10km以上 8 87 995 弱い雨
15 07:50 南南東 2 10km以上 8 87 995
15 07:20 南南西 5 10km以上 8 87 996 しゅう雨
15 06:50 2 10km以上 10 71 996 弱いしゅう雨
15 06:20 南南東 4 10km以上 9 76 997
15 05:50 南南東 3 10km以上 9 76 997
15 05:20 3 10km以上 9 81 998
15 04:50 5 10km以上 9 81 999
15 04:20 4 10km以上 9 81 1000
15 03:50 3 10km以上 8 87 1000
15 03:20 3 10km以上 5 100 1001
15 02:50 2 10km以上 4 100 1002
15 02:20 東南東 1 10km以上 4 93 1002
15 01:50 不定 1 10km以上 4 93 1003
15 01:20 南西 1 10km以上 4 93 1004
15 00:50 静穏 0 10km以上 4 93 1004
15 00:20 不定 1 10km以上 4 100 1004
14 23:50 不定 1 10km以上 4 93 1005
14 23:20 不定 1 10km以上 4 93 1005
14 22:50 南東 1 10km以上 5 93 1006
14 22:20 南西 2 10km以上 7 87 1006
14 21:50 西南西 2 10km以上 8 81 1007
14 21:20 西南西 2 10km以上 6 87 1007
14 20:50 西南西 2 10km以上 7 87 1007
14 20:20 南西 2 10km以上 8 81 1008
14 19:50 南西 2 10km以上 8 81 1008
14 19:20 南南西 2 10km以上 9 76 1008
14 18:50 南南西 2 10km以上 10 71 1008
14 18:20 2 10km以上 11 67 1008
14 17:50 2 10km以上 12 62 1009
14 17:20 南南西 3 10km以上 12 58 1009
14 16:50 3 10km以上 12 58 1009
14 16:20 3 10km以上 12 58 1009
14 15:50 5 10km以上 12 58 1009
14 15:20 4 10km以上 12 62 1009
14 14:50 5 10km以上 12 62 1009
14 14:20 4 10km以上 12 58 1010
14 13:50 南西 3 10km以上 12 54 1009
14 13:20 南南西 3 10km以上 12 58 1009
14 12:50 4 10km以上 11 67 1009
14 12:20 南西 3 10km以上 11 62 1009
14 11:50 3 10km以上 11 62 1009
14 11:20 南東 2 10km以上 11 62 1009
14 10:50 不定 1 10km以上 10 66 1009
14 10:20 北北西 2 10km以上 10 66 1009
14 09:50 北西 3 10km以上 9 66 1009
14 09:20 北西 3 10km以上 8 71 1009
14 08:50 北西 3 10km以上 7 76 1009
14 08:20 不定 1 10km以上 6 81 1009
14 07:50 北西 2 10km以上 5 87 1009
14 07:20 北北西 2 10km以上 6 81 1009
14 06:50 北北西 2 10km以上 5 87 1009
14 06:20 北西 4 10km以上 5 87 1009
14 05:50 西北西 4 10km以上 6 81 1009
14 05:20 北西 4 10km以上 6 81 1008
ESPA 160220Z AUTO 36006KT 9999 NCD 03/02 Q0994
ESPA 160150Z AUTO 35007KT 330V030 9999 NCD 04/02 Q0994
ESPA 160120Z AUTO 01007KT 9999 NCD 04/02 Q0993
ESPA 160050Z AUTO 02007KT 350V050 9999 NCD 05/03 Q0993
ESPA 160020Z AUTO 02006KT 350V050 9999 NCD 06/03 Q0993
ESPA 152350Z AUTO 02006KT 350V050 9999 NCD 06/03 Q0993
ESPA 152320Z AUTO 03006KT 340V070 9999 FEW044/// BKN062/// 06/04 Q0992
ESPA 152250Z AUTO 03007KT 360V060 9999 BKN044/// OVC060/// 07/04 Q0992
ESPA 152220Z AUTO 03006KT 360V060 9999 FEW043/// 07/04 Q0992
ESPA 152150Z AUTO 05008KT 020V090 9999 NCD 07/04 Q0991
ESPA 152120Z 05006KT 020V090 CAVOK 08/04 Q0991
ESPA 152050Z 05008KT 020V090 CAVOK 08/05 Q0991
ESPA 152020Z 05007KT 020V090 9999 FEW038 08/05 Q0991
ESPA 151950Z 06007KT 020V090 9999 FEW027 08/05 Q0991
ESPA 151920Z 06008KT 030V090 9999 FEW032 BKN056 OVC072 08/06 Q0990
ESPA 151850Z 06007KT 020V100 9999 FEW010 SCT029 OVC047 09/06 Q0990
ESPA 151820Z 01004KT 330V050 9999 -RA FEW005 OVC037 08/07 Q0990 RERA
ESPA 151750Z 05005KT 360V120 9999 -SHRA BKN037 OVC045 08/06 Q0990 RESHRA
ESPA 151720Z 07007KT 030V100 9999 -SHRA BKN036 OVC047 09/06 Q0990
ESPA 151650Z 06005KT 030V090 9999 -SHRA VV020 08/06 Q0990
ESPA 151620Z 07005KT 020V100 9999 SHRA FEW021 SCT029 OVC038 08/07 Q0990
ESPA 151550Z 07007KT 9999 -SHRA SCT031 BKN044 08/06 Q0990
ESPA 151520Z 06007KT 030V090 9999 -SHRA SCT035 BKN050 08/07 Q0990
ESPA 151450Z 08008KT 9999 SHRA VV047 08/06 Q0990
ESPA 151420Z 11008KT 080V140 9999 -SHRA SCT030 BKN038 09/06 Q0990
ESPA 151350Z 09009KT 9999 FEW029 SCT035 BKN052 10/06 Q0990
ESPA 151320Z 10008KT 9999 FEW032 SCT072 10/06 Q0990
ESPA 151250Z 10006KT 9999 -SHRA FEW028 SCT037CB 09/06 Q0990
ESPA 151220Z 11011KT 9999 -SHRA NSC 09/05 Q0991
ESPA 151150Z 12009KT 9999 -SHRA FEW032 SCT047CB BKN058 09/06 Q0991
ESPA 151120Z 12010KT 9999 -SHRA BKN048CB 09/07 Q0991
ESPA 151050Z 11009KT 080V140 9999 -SHRA FEW024CB SCT034CB BKN043 09/06 Q0991 RESHRA
ESPA 151020Z 13014KT 9999 SHRA VV033 08/06 Q0991
ESPA 150950Z 13013KT 9999 -SHRA SCT033CB OVC052 10/05 Q0992
ESPA 150920Z 13013KT 9999 FEW033 BKN058 10/07 Q0992
ESPA 150850Z 15009KT 120V180 9999 -RA FEW022CB SCT036CB BKN049 08/06 Q0992
ESPA 150820Z 17011KT 9999 -RA VV045 08/06 Q0993
ESPA 150750Z 14009KT 090V190 9999 RA FEW024 BKN040 08/06 Q0993
ESPA 150720Z 09009KT 9999 -RA SCT031CB BKN049 07/05 Q0994 RERA
ESPA 150650Z 14014KT 110V170 8000 +RA VV038 08/05 Q0994
ESPA 150620Z 18006KT 140V200 9999 -RA FEW029CB BKN052CB 08/06 Q0995 RERA
ESPA 150550Z 15004KT 080V210 9999 RA VV042 08/06 Q0995 RERA
ESPA 150520Z AUTO 20009KT 9999 SHRA VV040 08/06 Q0996 RESHRA
ESPA 150450Z AUTO 19004KT 9999 -SHRA BKN033/// OVC046/// 10/05 Q0996
ESPA 150420Z AUTO 16007KT 9999 BKN037/// 09/05 Q0997
ESPA 150350Z AUTO 16006KT 9999 NCD 09/05 Q0997
ESPA 150320Z AUTO 17005KT 9999 NCD 09/06 Q0998
ESPA 150250Z AUTO 18009KT 9999 NCD 09/06 Q0999
ESPA 150220Z AUTO 17008KT 9999 FEW031/// 09/06 Q1000
ESPA 150150Z AUTO 17006KT 9999 NCD 08/06 Q1000
ESPA 150120Z AUTO 17005KT 9999 NCD 05/05 Q1001
ESPA 150050Z AUTO 18003KT 9999 NCD 04/04 Q1002
ESPA 150020Z AUTO 11002KT 9999 NCD 04/03 Q1002
ESPA 142350Z AUTO VRB01KT 9999 NCD 04/03 Q1003
ESPA 142320Z AUTO 23002KT 9999 NCD 04/03 Q1004
ESPA 142250Z AUTO 00000KT 9999 NCD 04/03 Q1004
ESPA 142220Z AUTO VRB02KT 9999 NCD 04/04 Q1004
ESPA 142150Z AUTO VRB02KT 9999 NCD 04/03 Q1005
ESPA 142120Z AUTO VRB01KT 9999 NCD 04/03 Q1005
ESPA 142050Z AUTO 14001KT 9999 NCD 05/04 Q1006
ESPA 142020Z AUTO 23003KT 9999 NCD 07/05 Q1006
ESPA 141950Z AUTO 25003KT 9999 NCD 08/05 Q1007
ESPA 141920Z AUTO 24003KT 160V250 9999 NCD 06/04 Q1007
ESPA 141850Z AUTO 24003KT 9999 NCD 07/05 Q1007
ESPA 141820Z AUTO 22003KT 9999 NCD 08/05 Q1008
ESPA 141750Z AUTO 23003KT 9999 FEW049/// 08/05 Q1008
ESPA 141720Z 21004KT CAVOK 09/05 Q1008
ESPA 141650Z 21004KT CAVOK 10/05 Q1008
ESPA 141620Z 19003KT CAVOK 11/05 Q1008
ESPA 141550Z 19004KT CAVOK 12/05 Q1009
ESPA 141520Z 21005KT CAVOK 12/04 Q1009
ESPA 141450Z 19005KT CAVOK 12/04 Q1009
ESPA 141420Z 17005KT CAVOK 12/04 Q1009
ESPA 141350Z 18009KT 9999 FEW048 12/04 Q1009
ESPA 141320Z 19007KT CAVOK 12/05 Q1009
ESPA 141250Z 17009KT 9999 FEW043 12/05 Q1009
ESPA 141220Z 19007KT 150V240 CAVOK 12/04 Q1010
ESPA 141150Z 22005KT 180V260 9999 FEW040 12/03 Q1009
ESPA 141120Z 20005KT 170V230 CAVOK 12/04 Q1009
ESPA 141050Z 17007KT CAVOK 11/05 Q1009
ESPA 141020Z 22005KT 160V250 CAVOK 11/04 Q1009
ESPA 140950Z VRB06KT CAVOK 11/04 Q1009
ESPA 140920Z 14004KT CAVOK 11/04 Q1009
ESPA 140850Z VRB01KT CAVOK 10/04 Q1009
ESPA 140820Z 33003KT 280V360 CAVOK 10/04 Q1009
ESPA 140750Z 32005KT CAVOK 09/03 Q1009
ESPA 140720Z 32006KT CAVOK 08/03 Q1009
ESPA 140650Z 32005KT CAVOK 07/03 Q1009
ESPA 140620Z VRB02KT CAVOK 06/03 Q1009
ESPA 140550Z 32003KT 300V010 CAVOK 05/03 Q1009
ESPA 140520Z 33003KT CAVOK 06/03 Q1009
ESPA 140450Z 33004KT CAVOK 05/03 Q1009
ESPA 140420Z 31007KT CAVOK 05/03 Q1009
ESPA 140350Z 30008KT CAVOK 06/03 Q1009
ESPA 140320Z AUTO 32007KT 9999 OVC160/// 06/03 Q1008